createdAt,value
2023-05-07T00:00:38.192Z,22.05
2023-05-07T00:03:05.102Z,23.80
2023-05-07T00:05:31.941Z,21.85
2023-05-07T00:07:59.750Z,24.80
2023-05-07T00:10:27.241Z,22.60
2023-05-07T00:12:54.104Z,26.05
2023-05-07T00:15:21.020Z,24.13
2023-05-07T00:17:47.847Z,21.40
2023-05-07T00:20:14.723Z,23.35
2023-05-07T00:22:41.544Z,23.10
2023-05-07T00:25:08.805Z,22.15
2023-05-07T00:27:35.607Z,22.25
2023-05-07T00:30:02.467Z,18.17
2023-05-07T00:32:29.257Z,20.15
2023-05-07T00:34:56.695Z,18.92
2023-05-07T00:37:23.471Z,23.20
2023-05-07T00:39:50.259Z,20.90
2023-05-07T00:42:17.241Z,19.30
2023-05-07T00:44:44.174Z,19.85
2023-05-07T00:47:12.430Z,22.77
2023-05-07T00:49:42.362Z,19.73
2023-05-07T00:52:12.447Z,18.50
2023-05-07T00:54:41.136Z,24.17
2023-05-07T00:57:09.794Z,18.17
2023-05-07T00:59:37.012Z,21.48
2023-05-07T01:02:03.906Z,20.42
2023-05-07T01:04:30.819Z,19.85
2023-05-07T01:06:59.431Z,19.88
2023-05-07T01:09:27.651Z,18.88
2023-05-07T01:11:55.664Z,18.75
2023-05-07T01:14:22.789Z,16.45
2023-05-07T01:16:52.032Z,22.02
2023-05-07T01:19:20.447Z,15.02
2023-05-07T01:21:49.259Z,18.60
2023-05-07T01:24:16.852Z,17.30
2023-05-07T01:26:45.564Z,16.48
2023-05-07T01:29:12.701Z,24.40
2023-05-07T01:31:41.395Z,21.30
2023-05-07T01:34:10.465Z,18.15
2023-05-07T01:36:39.639Z,21.83
2023-05-07T01:39:07.776Z,22.38
2023-05-07T01:41:35.073Z,17.67
2023-05-07T01:44:04.017Z,22.08
2023-05-07T01:46:32.311Z,17.73
2023-05-07T01:48:59.646Z,21.55
2023-05-07T01:51:27.172Z,23.30
2023-05-07T01:53:54.690Z,18.90
2023-05-07T01:56:21.983Z,15.13
2023-05-07T01:58:49.246Z,21.40
2023-05-07T02:01:16.139Z,17.33
2023-05-07T02:03:43.220Z,18.92
2023-05-07T02:06:10.136Z,16.30
2023-05-07T02:08:37.121Z,18.58
2023-05-07T02:11:04.703Z,16.00
2023-05-07T02:13:34.745Z,17.23
2023-05-07T02:16:02.123Z,19.20
2023-05-07T02:18:28.925Z,24.30
2023-05-07T02:20:55.748Z,23.58
2023-05-07T02:23:22.511Z,17.00
2023-05-07T02:25:49.264Z,22.33
2023-05-07T02:28:16.421Z,16.50
2023-05-07T02:30:43.339Z,17.52
2023-05-07T02:33:10.570Z,23.58
2023-05-07T02:35:37.488Z,16.15
2023-05-07T02:38:04.330Z,17.77
2023-05-07T02:40:34.564Z,20.67
2023-05-07T02:43:01.437Z,18.15
2023-05-07T02:45:28.362Z,19.75
2023-05-07T02:47:56.083Z,19.60
2023-05-07T02:50:23.015Z,17.23
2023-05-07T02:52:49.862Z,20.38
2023-05-07T02:55:17.176Z,21.02
2023-05-07T02:57:43.952Z,22.70
2023-05-07T03:00:15.829Z,20.67
2023-05-07T03:02:42.812Z,16.58
2023-05-07T03:05:09.734Z,17.65
2023-05-07T03:07:37.260Z,16.92
2023-05-07T03:10:04.883Z,19.13
2023-05-07T03:12:32.348Z,16.95
2023-05-07T03:14:59.306Z,21.48
2023-05-07T03:17:28.920Z,18.95
2023-05-07T03:19:55.794Z,19.85
2023-05-07T03:22:22.634Z,20.17
2023-05-07T03:24:49.423Z,18.40
2023-05-07T03:27:16.267Z,19.63
2023-05-07T03:29:43.057Z,18.92
2023-05-07T03:32:09.912Z,20.00
2023-05-07T03:34:36.683Z,19.70
2023-05-07T03:37:03.476Z,20.95
2023-05-07T03:39:30.283Z,23.38
2023-05-07T03:41:57.831Z,22.08
2023-05-07T03:44:24.759Z,17.85
2023-05-07T03:46:51.524Z,17.63
2023-05-07T03:49:18.346Z,17.73
2023-05-07T03:51:45.206Z,18.88
2023-05-07T03:54:12.127Z,21.40
2023-05-07T03:56:38.911Z,16.42
2023-05-07T03:59:05.780Z,15.98
2023-05-07T04:01:32.768Z,19.55
2023-05-07T04:03:59.687Z,19.40
2023-05-07T04:06:26.647Z,24.60
2023-05-07T04:08:53.397Z,19.25
2023-05-07T04:11:21.299Z,18.67
2023-05-07T04:13:48.330Z,23.15
2023-05-07T04:16:15.144Z,16.80
2023-05-07T04:18:42.440Z,21.05
2023-05-07T04:21:19.558Z,23.35
2023-05-07T04:23:50.529Z,20.02
2023-05-07T04:26:17.426Z,18.58
2023-05-07T04:28:44.250Z,22.60
2023-05-07T04:31:11.257Z,25.63
2023-05-07T04:33:38.114Z,24.70
2023-05-07T04:36:05.528Z,28.25
2023-05-07T04:38:32.706Z,21.83
2023-05-07T04:41:04.964Z,24.40
2023-05-07T04:43:31.889Z,23.52
2023-05-07T04:45:58.881Z,23.50
2023-05-07T04:48:25.889Z,25.55
2023-05-07T04:50:52.849Z,23.30
2023-05-07T04:53:20.099Z,28.25
2023-05-07T04:55:46.989Z,33.13
2023-05-07T04:58:14.147Z,24.80
2023-05-07T05:00:41.072Z,21.42
2023-05-07T05:03:08.418Z,25.88
2023-05-07T05:05:35.309Z,26.17
2023-05-07T05:08:02.185Z,30.20
2023-05-07T05:10:28.943Z,29.42
2023-05-07T05:12:55.842Z,28.17
2023-05-07T05:15:22.861Z,29.50
2023-05-07T05:17:49.672Z,25.77
2023-05-07T05:20:16.685Z,26.77
2023-05-07T05:22:43.637Z,19.65
2023-05-07T05:25:10.547Z,27.92
2023-05-07T05:27:37.440Z,27.23
2023-05-07T05:30:05.233Z,22.38
2023-05-07T05:32:32.065Z,23.60
2023-05-07T05:34:58.906Z,25.20
2023-05-07T05:37:26.416Z,27.63
2023-05-07T05:39:53.755Z,27.73
2023-05-07T05:42:21.076Z,23.55
2023-05-07T05:44:47.873Z,25.80
2023-05-07T05:47:15.064Z,22.83
2023-05-07T05:49:41.964Z,22.25
2023-05-07T05:52:10.760Z,26.92
2023-05-07T05:54:38.270Z,18.52
2023-05-07T05:57:06.003Z,23.17
2023-05-07T05:59:33.107Z,19.20
2023-05-07T06:02:00.097Z,21.33
2023-05-07T06:04:27.187Z,18.75
2023-05-07T06:06:53.904Z,16.73
2023-05-07T06:09:21.226Z,17.33
2023-05-07T06:11:48.134Z,17.92
2023-05-07T06:14:14.967Z,17.88
2023-05-07T06:16:41.867Z,15.48
2023-05-07T06:19:08.752Z,20.77
2023-05-07T06:21:35.573Z,14.95
2023-05-07T06:24:02.330Z,15.88
2023-05-07T06:26:29.106Z,14.50
2023-05-07T06:28:56.044Z,14.65
2023-05-07T06:31:23.071Z,11.45
2023-05-07T06:33:55.160Z,9.77
2023-05-07T06:36:22.130Z,9.13
2023-05-07T06:38:48.908Z,7.50
2023-05-07T06:41:15.759Z,7.35
2023-05-07T06:43:42.682Z,10.20
2023-05-07T06:46:09.609Z,10.68
2023-05-07T06:48:36.539Z,8.32
2023-05-07T06:51:03.346Z,7.60
2023-05-07T06:53:31.617Z,6.72
2023-05-07T06:55:58.440Z,6.25
2023-05-07T06:58:25.388Z,12.90
2023-05-07T07:00:52.101Z,6.78
2023-05-07T07:03:18.915Z,9.60
2023-05-07T07:05:45.796Z,6.18
2023-05-07T07:08:12.536Z,9.98
2023-05-07T07:10:39.524Z,5.20
2023-05-07T07:13:06.355Z,27.55
2023-05-07T07:15:33.128Z,26.92
2023-05-07T07:17:59.898Z,5.60
2023-05-07T07:20:26.896Z,5.45
2023-05-07T07:22:53.744Z,8.50
2023-05-07T07:25:20.600Z,3.92
2023-05-07T07:27:47.622Z,3.30
2023-05-07T07:30:14.549Z,4.55
2023-05-07T07:32:41.396Z,4.40
2023-05-07T07:35:08.887Z,5.82
2023-05-07T07:37:35.764Z,9.82
2023-05-07T07:40:02.579Z,3.38
2023-05-07T07:42:30.250Z,6.45
2023-05-07T07:44:58.161Z,4.35
2023-05-07T07:47:25.138Z,4.40
2023-05-07T07:49:51.910Z,5.47
2023-05-07T07:52:19.832Z,4.70
2023-05-07T07:54:46.660Z,6.20
2023-05-07T07:57:13.486Z,6.13
2023-05-07T07:59:40.606Z,4.82
2023-05-07T08:02:07.628Z,3.80
2023-05-07T08:04:34.503Z,6.80
2023-05-07T08:07:01.476Z,4.40
2023-05-07T08:09:28.335Z,6.45
2023-05-07T08:11:55.213Z,6.03
2023-05-07T08:14:21.989Z,5.40
2023-05-07T08:16:49.019Z,4.32
2023-05-07T08:19:15.952Z,4.97
2023-05-07T08:21:42.826Z,3.30
2023-05-07T08:24:09.626Z,11.50
2023-05-07T08:26:37.018Z,4.47
2023-05-07T08:29:03.848Z,2.55
2023-05-07T08:31:30.667Z,3.92
2023-05-07T08:33:59.115Z,5.18
2023-05-07T08:36:26.752Z,3.45
2023-05-07T08:38:54.188Z,4.22
2023-05-07T08:41:21.888Z,3.97
2023-05-07T08:43:50.893Z,5.75
2023-05-07T08:46:25.974Z,4.32
2023-05-07T08:51:21.855Z,4.82
2023-05-07T08:53:49.893Z,2.90
2023-05-07T08:56:18.100Z,6.97
2023-05-07T08:58:46.304Z,5.25
2023-05-07T09:01:17.634Z,5.00
2023-05-07T09:03:47.845Z,4.45
2023-05-07T09:06:15.122Z,5.80
2023-05-07T09:08:41.978Z,3.17
2023-05-07T09:11:09.206Z,5.72
2023-05-07T09:13:35.997Z,3.88
2023-05-07T09:16:13.158Z,6.00
2023-05-07T09:18:47.446Z,4.93
2023-05-07T09:21:18.994Z,2.50
2023-05-07T09:23:45.845Z,2.60
2023-05-07T09:26:13.008Z,5.80
2023-05-07T09:28:43.756Z,2.55
2023-05-07T09:31:12.234Z,4.50
2023-05-07T09:33:40.521Z,4.70
2023-05-07T09:36:09.612Z,2.75
2023-05-07T09:38:37.933Z,5.47
2023-05-07T09:41:05.065Z,4.20
2023-05-07T09:43:37.031Z,5.30
2023-05-07T09:46:06.938Z,5.68
2023-05-07T09:48:38.080Z,2.22
2023-05-07T09:51:19.557Z,4.43
2023-05-07T09:53:47.226Z,2.35
2023-05-07T09:56:16.472Z,3.13
2023-05-07T09:58:44.324Z,3.15
2023-05-07T10:01:12.968Z,3.42
2023-05-07T10:03:43.396Z,2.65
2023-05-07T10:06:11.712Z,3.20
2023-05-07T10:08:39.013Z,2.85
2023-05-07T10:11:09.614Z,2.45
2023-05-07T10:13:37.806Z,4.00
2023-05-07T10:16:06.239Z,3.47
2023-05-07T10:18:34.447Z,1.90
2023-05-07T10:21:18.323Z,2.83
2023-05-07T10:23:50.049Z,4.18
2023-05-07T10:26:19.324Z,3.83
2023-05-07T10:28:49.267Z,3.83
2023-05-07T10:31:51.237Z,2.78
2023-05-07T10:34:24.164Z,3.60
2023-05-07T10:36:52.970Z,6.80
2023-05-07T10:39:21.620Z,6.75
2023-05-07T10:41:49.240Z,4.90
2023-05-07T10:44:30.379Z,10.00
2023-05-07T10:47:11.755Z,3.97
2023-05-07T10:50:07.491Z,10.20
2023-05-07T10:55:16.489Z,8.85
2023-05-07T10:57:43.282Z,8.98
2023-05-07T11:00:37.975Z,5.50
2023-05-07T11:05:37.942Z,7.72
2023-05-07T11:08:06.384Z,4.47
2023-05-07T11:10:59.184Z,5.45
2023-05-07T11:13:45.875Z,6.93
2023-05-07T11:16:24.521Z,5.53
2023-05-07T11:18:53.289Z,12.32
2023-05-07T11:21:39.432Z,5.68
2023-05-07T11:24:07.804Z,6.70
2023-05-07T11:26:46.572Z,6.43
2023-05-07T11:29:23.969Z,7.20
2023-05-07T11:31:55.265Z,4.57
2023-05-07T11:34:23.838Z,4.88
2023-05-07T11:36:50.927Z,6.03
2023-05-07T11:39:27.867Z,4.38
2023-05-07T11:41:54.699Z,7.97
2023-05-07T11:44:21.466Z,10.13
2023-05-07T11:46:49.501Z,8.27
2023-05-07T11:49:16.884Z,4.43
2023-05-07T11:51:43.974Z,11.63
2023-05-07T11:54:12.321Z,4.80
2023-05-07T11:56:40.092Z,6.55
2023-05-07T11:59:07.358Z,6.63
2023-05-07T12:01:37.139Z,7.90
2023-05-07T12:04:05.571Z,6.35
2023-05-07T12:06:32.486Z,5.25
2023-05-07T12:08:59.527Z,4.60
2023-05-07T12:11:27.267Z,6.20
2023-05-07T12:13:59.048Z,5.55
2023-05-07T12:16:26.739Z,5.07
2023-05-07T12:18:56.036Z,3.22
2023-05-07T12:21:24.270Z,3.22
2023-05-07T12:23:51.457Z,4.30
2023-05-07T12:26:20.022Z,4.80
2023-05-07T12:28:47.279Z,6.53
2023-05-07T12:31:16.079Z,5.72
2023-05-07T12:33:43.460Z,16.58
2023-05-07T12:36:13.117Z,4.10
2023-05-07T12:38:41.690Z,5.88
2023-05-07T12:41:11.126Z,8.02
2023-05-07T12:43:39.053Z,5.20
2023-05-07T12:46:07.944Z,5.43
2023-05-07T12:48:36.663Z,4.57
2023-05-07T12:51:03.976Z,7.43
2023-05-07T12:53:32.316Z,5.55
2023-05-07T12:56:00.808Z,7.45
2023-05-07T12:58:34.297Z,4.47
2023-05-07T13:01:02.793Z,9.30
2023-05-07T13:03:31.463Z,5.68
2023-05-07T13:06:07.252Z,3.88
2023-05-07T13:08:37.360Z,5.32
2023-05-07T13:11:04.967Z,6.75
2023-05-07T13:13:33.357Z,4.55
2023-05-07T13:16:01.468Z,4.75
2023-05-07T13:18:30.660Z,6.60
2023-05-07T13:20:58.357Z,6.13
2023-05-07T13:23:25.879Z,3.35
2023-05-07T13:25:54.875Z,5.32
2023-05-07T13:28:22.184Z,5.78
2023-05-07T13:30:49.306Z,4.93
2023-05-07T13:33:17.026Z,3.75
2023-05-07T13:35:43.957Z,4.00
2023-05-07T13:38:10.870Z,14.55
2023-05-07T13:40:37.766Z,9.80
2023-05-07T13:43:06.775Z,4.22
2023-05-07T13:45:33.664Z,4.80
2023-05-07T13:48:00.640Z,4.78
2023-05-07T13:50:30.933Z,10.35
2023-05-07T13:52:57.903Z,4.53
2023-05-07T13:55:25.792Z,8.07
2023-05-07T13:58:00.780Z,4.25
2023-05-07T14:00:28.540Z,6.40
2023-05-07T14:02:56.183Z,3.80
2023-05-07T14:05:28.981Z,4.38
2023-05-07T14:07:57.693Z,4.63
2023-05-07T14:10:24.512Z,7.75
2023-05-07T14:12:51.370Z,5.07
2023-05-07T14:15:18.234Z,6.47
2023-05-07T14:17:45.453Z,2.80
2023-05-07T14:20:13.753Z,5.75
2023-05-07T14:22:40.999Z,4.97
2023-05-07T14:25:08.723Z,6.82
2023-05-07T14:27:35.694Z,3.75
2023-05-07T14:30:02.604Z,7.97
2023-05-07T14:32:29.538Z,6.57
2023-05-07T14:34:56.334Z,4.40
2023-05-07T14:37:25.020Z,5.05
2023-05-07T14:39:51.870Z,5.70
2023-05-07T14:42:18.965Z,4.28
2023-05-07T14:44:46.505Z,4.65
2023-05-07T14:47:14.487Z,3.45
2023-05-07T14:49:44.122Z,6.78
2023-05-07T14:52:11.291Z,4.68
2023-05-07T14:54:39.413Z,5.90
2023-05-07T14:57:08.008Z,2.95
2023-05-07T14:59:35.297Z,4.20
2023-05-07T15:02:05.221Z,5.95
2023-05-07T15:04:33.037Z,5.10
2023-05-07T15:07:00.093Z,4.35
2023-05-07T15:09:27.172Z,5.65
2023-05-07T15:11:53.968Z,4.25
2023-05-07T15:14:22.751Z,3.75
2023-05-07T15:16:50.122Z,5.90
2023-05-07T15:19:17.971Z,6.55
2023-05-07T15:21:44.994Z,4.90
2023-05-07T15:24:11.735Z,5.45
2023-05-07T15:26:38.516Z,8.13
2023-05-07T15:29:10.792Z,6.13
2023-05-07T15:31:39.085Z,4.95
2023-05-07T15:34:06.134Z,3.42
2023-05-07T15:36:33.856Z,2.85
2023-05-07T15:39:01.085Z,3.95
2023-05-07T15:41:27.845Z,3.60
2023-05-07T15:43:54.693Z,3.10
2023-05-07T15:46:26.888Z,2.83
2023-05-07T15:48:54.127Z,2.70
2023-05-07T15:51:21.292Z,4.43
2023-05-07T15:53:48.298Z,6.25
2023-05-07T15:56:15.249Z,2.42
2023-05-07T15:58:42.086Z,2.35
2023-05-07T16:01:09.107Z,3.30
2023-05-07T16:03:36.230Z,2.97
2023-05-07T16:06:03.368Z,5.93
2023-05-07T16:08:30.173Z,5.93
2023-05-07T16:10:56.953Z,4.80
2023-05-07T16:13:24.975Z,3.97
2023-05-07T16:15:58.474Z,4.60
2023-05-07T16:18:25.550Z,4.05
2023-05-07T16:20:52.635Z,5.13
2023-05-07T16:23:19.501Z,3.83
2023-05-07T16:25:46.437Z,4.68
2023-05-07T16:28:14.085Z,4.63
2023-05-07T16:30:41.048Z,3.60
2023-05-07T16:33:08.405Z,5.10
2023-05-07T16:35:35.264Z,6.22
2023-05-07T16:38:02.032Z,5.82
2023-05-07T16:40:29.258Z,4.75
2023-05-07T16:42:56.294Z,4.82
2023-05-07T16:45:23.265Z,5.15
2023-05-07T16:47:50.214Z,3.67
2023-05-07T16:50:17.127Z,5.18
2023-05-07T16:52:43.917Z,4.38
2023-05-07T16:55:11.380Z,4.32
2023-05-07T16:57:38.769Z,3.72
2023-05-07T17:00:07.487Z,3.80
2023-05-07T17:02:37.412Z,5.50
2023-05-07T17:05:07.823Z,4.75
2023-05-07T17:07:35.152Z,5.13
2023-05-07T17:10:02.663Z,4.38
2023-05-07T17:12:31.283Z,4.38
2023-05-07T17:14:58.019Z,6.38
2023-05-07T17:17:24.827Z,5.20
2023-05-07T17:19:51.824Z,3.80
2023-05-07T17:22:18.706Z,6.75
2023-05-07T17:24:45.666Z,5.30
2023-05-07T17:27:12.479Z,3.70
2023-05-07T17:29:39.244Z,4.90
2023-05-07T17:32:07.779Z,6.22
2023-05-07T17:34:35.491Z,5.25
2023-05-07T17:37:02.577Z,4.22
2023-05-07T17:39:29.597Z,3.53
2023-05-07T17:41:56.537Z,3.50
2023-05-07T17:44:23.408Z,8.90
2023-05-07T17:46:50.391Z,4.78
2023-05-07T17:49:19.570Z,5.32
2023-05-07T17:51:55.402Z,6.43
2023-05-07T17:54:25.975Z,4.93
2023-05-07T17:56:53.246Z,11.27
2023-05-07T17:59:20.114Z,8.02
2023-05-07T18:01:47.028Z,6.47
2023-05-07T18:04:14.085Z,7.25
2023-05-07T18:06:42.078Z,5.13
2023-05-07T18:09:09.276Z,4.57
2023-05-07T18:11:37.360Z,4.40
2023-05-07T18:14:04.412Z,6.97
2023-05-07T18:16:31.324Z,8.25
2023-05-07T18:18:58.423Z,5.57
2023-05-07T18:21:25.299Z,5.70
2023-05-07T18:23:52.077Z,5.28
2023-05-07T18:26:18.886Z,10.57
2023-05-07T18:28:46.452Z,6.28
2023-05-07T18:31:13.707Z,6.50
2023-05-07T18:33:40.661Z,8.05
2023-05-07T18:36:07.532Z,10.75
2023-05-07T18:38:34.337Z,12.35
2023-05-07T18:41:05.477Z,9.38
2023-05-07T18:43:34.024Z,21.33
2023-05-07T18:46:01.268Z,7.65
2023-05-07T18:48:28.326Z,12.73
2023-05-07T18:50:55.447Z,7.75
2023-05-07T18:53:22.464Z,7.25
2023-05-07T18:55:50.715Z,9.32
2023-05-07T18:58:19.771Z,6.72
2023-05-07T19:00:51.445Z,5.63
2023-05-07T19:03:18.453Z,5.45
2023-05-07T19:05:45.833Z,6.55
2023-05-07T19:08:13.135Z,6.93
2023-05-07T19:10:42.376Z,6.68
2023-05-07T19:13:09.216Z,5.38
2023-05-07T19:15:38.648Z,8.65
2023-05-07T19:18:05.547Z,5.32
2023-05-07T19:20:32.477Z,6.82
2023-05-07T19:22:59.312Z,4.70
2023-05-07T19:25:26.067Z,7.40
2023-05-07T19:27:52.980Z,5.53
2023-05-07T19:30:19.907Z,5.97
2023-05-07T19:32:46.814Z,7.70
2023-05-07T19:35:13.967Z,7.93
2023-05-07T19:37:43.335Z,12.27
2023-05-07T19:40:10.652Z,5.53
2023-05-07T19:42:37.615Z,13.20
2023-05-07T19:45:05.509Z,10.32
2023-05-07T19:47:32.694Z,6.68
2023-05-07T19:49:59.723Z,7.32
2023-05-07T19:52:27.016Z,6.43
2023-05-07T19:54:54.720Z,6.63
2023-05-07T19:57:21.570Z,12.57
2023-05-07T19:59:48.554Z,5.82
2023-05-07T20:02:15.601Z,6.13
2023-05-07T20:04:42.575Z,11.32
2023-05-07T20:07:09.453Z,16.67
2023-05-07T20:09:36.706Z,7.32
2023-05-07T20:12:03.800Z,8.48
2023-05-07T20:14:30.646Z,3.95
2023-05-07T20:17:00.024Z,12.40
2023-05-07T20:19:27.022Z,4.55
2023-05-07T20:21:53.934Z,5.82
2023-05-07T20:24:20.936Z,6.32
2023-05-07T20:26:47.924Z,7.70
2023-05-07T20:29:14.811Z,6.28
2023-05-07T20:31:41.645Z,5.70
2023-05-07T20:34:08.539Z,7.07
2023-05-07T20:36:37.094Z,7.85
2023-05-07T20:39:06.334Z,9.63
2023-05-07T20:41:33.126Z,10.43
2023-05-07T20:44:00.490Z,7.72
2023-05-07T20:46:27.614Z,8.30
2023-05-07T20:48:54.783Z,5.82
2023-05-07T20:51:21.626Z,9.88
2023-05-07T20:53:48.423Z,8.00
2023-05-07T20:56:15.982Z,12.32
2023-05-07T20:58:42.806Z,7.97
2023-05-07T21:01:09.756Z,10.05
2023-05-07T21:03:36.641Z,7.20
2023-05-07T21:06:04.151Z,7.88
2023-05-07T21:08:31.146Z,9.55
2023-05-07T21:11:00.537Z,7.40
2023-05-07T21:13:27.598Z,7.18
2023-05-07T21:15:54.396Z,8.98
2023-05-07T21:18:21.398Z,8.38
2023-05-07T21:20:48.400Z,7.07
2023-05-07T21:23:15.400Z,8.48
2023-05-07T21:25:42.477Z,9.55
2023-05-07T21:28:09.387Z,9.48
2023-05-07T21:30:37.371Z,6.07
2023-05-07T21:33:06.307Z,5.82
2023-05-07T21:35:36.260Z,11.35
2023-05-07T21:38:03.519Z,7.07
2023-05-07T21:40:30.397Z,7.32
2023-05-07T21:42:58.513Z,16.30
2023-05-07T21:45:25.549Z,6.32
2023-05-07T21:47:52.745Z,7.93
2023-05-07T21:50:19.835Z,6.57
2023-05-07T21:52:46.901Z,11.52
2023-05-07T21:55:13.925Z,8.23
2023-05-07T21:57:43.621Z,8.45
2023-05-07T22:00:13.291Z,6.30
2023-05-07T22:02:40.518Z,6.65
2023-05-07T22:05:07.774Z,10.68
2023-05-07T22:07:34.492Z,7.18
2023-05-07T22:10:01.508Z,7.78
2023-05-07T22:12:28.482Z,11.73
2023-05-07T22:14:55.277Z,7.00
2023-05-07T22:17:24.334Z,5.55
2023-05-07T22:19:51.945Z,6.20
2023-05-07T22:22:19.197Z,6.60
2023-05-07T22:24:46.834Z,7.35
2023-05-07T22:27:13.588Z,7.80
2023-05-07T22:29:40.744Z,6.90
2023-05-07T22:32:08.371Z,9.95
2023-05-07T22:34:36.729Z,7.78
2023-05-07T22:37:03.560Z,8.68
2023-05-07T22:39:34.367Z,7.78
2023-05-07T22:42:02.352Z,7.72
2023-05-07T22:44:29.396Z,7.18
2023-05-07T22:46:56.259Z,9.13
2023-05-07T22:49:23.331Z,8.45
2023-05-07T22:51:50.190Z,6.57
2023-05-07T22:54:17.061Z,8.48
2023-05-07T22:56:43.981Z,8.35
2023-05-07T22:59:10.739Z,7.05
2023-05-07T23:01:38.254Z,8.98
2023-05-07T23:04:05.229Z,10.80
2023-05-07T23:06:32.030Z,10.50
2023-05-07T23:08:59.009Z,11.95
2023-05-07T23:11:26.412Z,9.45
2023-05-07T23:13:53.273Z,8.27
2023-05-07T23:16:20.096Z,11.93
2023-05-07T23:18:47.878Z,9.68
2023-05-07T23:21:14.679Z,11.77
2023-05-07T23:23:41.525Z,15.40
2023-05-07T23:26:09.029Z,12.13
2023-05-07T23:28:35.966Z,5.65
2023-05-07T23:31:02.980Z,7.93
2023-05-07T23:33:29.843Z,8.55
2023-05-07T23:36:04.573Z,11.93
2023-05-07T23:38:31.767Z,12.60
2023-05-07T23:40:58.839Z,7.45
2023-05-07T23:43:25.881Z,10.32
2023-05-07T23:45:52.858Z,10.02
2023-05-07T23:48:19.844Z,13.90
2023-05-07T23:50:46.704Z,11.82
2023-05-07T23:53:13.539Z,11.50
2023-05-07T23:55:40.354Z,7.70
2023-05-07T23:58:07.200Z,10.02
